createdAt,value
2023-11-03T00:03:06.029Z,96723.24
2023-11-03T00:07:04.294Z,96709.34999999999
2023-11-03T00:11:04.936Z,96718.59
2023-11-03T00:15:03.244Z,96725.05
2023-11-03T00:19:04.553Z,96734.3
2023-11-03T00:23:04.752Z,96737.7
2023-11-03T00:31:04.407Z,96746.77
2023-11-03T00:35:05.627Z,96757.76
2023-11-03T00:39:02.950Z,96759.6
2023-11-03T00:43:03.306Z,96765.12
2023-11-03T00:47:03.383Z,96762.91
2023-11-03T00:51:04.834Z,96767.61
2023-11-03T00:55:06.774Z,96772.24
2023-11-03T00:59:03.013Z,96783.64
2023-11-03T01:03:02.982Z,96777.34
2023-11-03T01:07:03.788Z,96787.55
2023-11-03T01:11:03.177Z,96787.33
2023-11-03T01:15:05.648Z,96785.97
2023-11-03T01:19:04.361Z,96804.47
2023-11-03T01:23:03.626Z,96799.27
2023-11-03T01:31:04.301Z,96804.69
2023-11-03T01:35:03.462Z,96805.97
2023-11-03T01:39:05.527Z,96820.72
2023-11-03T01:43:03.273Z,96821.86
2023-11-03T01:47:03.544Z,96824.45
2023-11-03T01:51:04.129Z,96820.15
2023-11-03T01:55:03.393Z,96818.02
2023-11-03T01:59:04.681Z,96816.41
2023-11-03T02:03:03.287Z,96823.49
2023-11-03T02:07:03.023Z,96820.86
2023-11-03T02:11:03.397Z,96818.48
2023-11-03T02:15:05.587Z,96829.14
2023-11-03T02:19:04.129Z,96839.09999999999
2023-11-03T02:23:04.109Z,96848.27
2023-11-03T02:27:03.127Z,96846.51
2023-11-03T02:31:03.210Z,96859.75
2023-11-03T02:35:03.362Z,96864.83
2023-11-03T02:39:03.362Z,96865.20000000001
2023-11-03T02:43:03.227Z,96876.71
2023-11-03T02:47:04.029Z,96873.41
2023-11-03T02:51:03.520Z,96879.57
2023-11-03T02:55:04.333Z,96886.83
2023-11-03T03:03:04.521Z,96893.66
2023-11-03T03:11:03.524Z,96904.38
2023-11-03T03:23:03.422Z,96904.52
2023-11-03T03:27:03.156Z,96904.88
2023-11-03T03:31:03.561Z,96913.19
2023-11-03T03:35:03.520Z,96918.28
2023-11-03T03:39:03.831Z,96919.9
2023-11-03T03:43:03.223Z,96914.70000000001
2023-11-03T03:47:03.620Z,96914.70000000001
2023-11-03T03:51:03.538Z,96919.84
2023-11-03T03:55:38.434Z,96920.29
2023-11-03T03:59:03.280Z,96932.01000000001
2023-11-03T04:03:03.586Z,96921.56999999999
2023-11-03T04:07:03.253Z,96924.64
2023-11-03T04:11:03.528Z,96928.88
2023-11-03T04:15:03.639Z,96931.19
2023-11-03T04:19:04.031Z,96939.15
2023-11-03T04:23:03.319Z,96934.83
2023-11-03T04:27:03.793Z,96940.32999999999
2023-11-03T04:31:03.509Z,96942.02
2023-11-03T04:35:03.872Z,96945.23000000001
2023-11-03T04:39:03.435Z,96947.64
2023-11-03T04:43:03.539Z,96953.31
2023-11-03T04:47:03.617Z,96962.39
2023-11-03T04:51:03.749Z,96966.38
2023-11-03T04:55:03.604Z,96971.77
2023-11-03T04:59:05.480Z,96975.73
2023-11-03T05:03:03.650Z,96979.44
2023-11-03T05:07:04.610Z,96983.26
2023-11-03T05:11:03.636Z,96986.31
2023-11-03T05:15:05.648Z,96989.78
2023-11-03T05:19:03.521Z,96994.3
2023-11-03T05:23:03.588Z,97000.3
2023-11-03T05:27:03.433Z,97004.24
2023-11-03T05:31:05.461Z,97013.45999999999
2023-11-03T05:35:05.691Z,97007.96
2023-11-03T05:39:03.918Z,97015.31999999999
2023-11-03T05:43:03.516Z,97007.28
2023-11-03T05:47:04.430Z,97015.22
2023-11-03T05:51:04.233Z,97014.04
2023-11-03T05:55:05.251Z,97011.19
2023-11-03T05:59:04.583Z,97018.05
2023-11-03T06:03:04.314Z,97022.27
2023-11-03T06:07:06.632Z,97031.02
2023-11-03T06:11:03.912Z,97031.01000000001
2023-11-03T06:15:04.765Z,97034.52
2023-11-03T06:23:03.839Z,97040.89
2023-11-03T06:31:04.154Z,97056.76
2023-11-03T06:35:04.030Z,97063.7
2023-11-03T06:39:03.801Z,97070.65
2023-11-03T06:43:05.903Z,97070.58
2023-11-03T06:47:04.019Z,97078.83
2023-11-03T06:51:09.305Z,97087.62000000001
2023-11-03T06:55:04.068Z,97089.53
2023-11-03T06:59:03.996Z,97090.84
2023-11-03T07:03:03.875Z,97095.98
2023-11-03T07:11:04.107Z,97113.23
2023-11-03T07:15:04.430Z,97115.83
2023-11-03T07:19:04.033Z,97122.97
2023-11-03T07:23:05.074Z,97126.87
2023-11-03T07:27:04.349Z,97126.79000000001
2023-11-03T07:35:06.516Z,97126.58
2023-11-03T07:39:05.990Z,97128.41
2023-11-03T07:43:05.750Z,97138.89
2023-11-03T07:47:07.129Z,97141.76
2023-11-03T07:51:04.748Z,97146.89
2023-11-03T07:55:05.835Z,97154.07
2023-11-03T08:03:06.148Z,97162.62000000001
2023-11-03T08:07:04.355Z,97168.94
2023-11-03T08:15:13.055Z,97177.03
2023-11-03T08:23:04.266Z,97186.55
2023-11-03T08:27:57.906Z,97193.33
2023-11-03T08:31:04.187Z,97198.29999999999
2023-11-03T08:35:05.704Z,97200.27
2023-11-03T08:39:16.820Z,97204.69
2023-11-03T08:43:04.631Z,97210.38
2023-11-03T08:47:04.065Z,97209.64
2023-11-03T08:51:04.088Z,97225.17
2023-11-03T08:55:06.942Z,97229.66
2023-11-03T08:59:04.227Z,97234.48
2023-11-03T09:03:04.206Z,97240.61
2023-11-03T09:07:04.328Z,97244.32
2023-11-03T09:11:04.291Z,97237.01999999999
2023-11-03T09:15:05.825Z,97237.49
2023-11-03T09:19:04.399Z,97232.31
2023-11-03T09:23:04.092Z,97236.77
2023-11-03T09:27:09.127Z,97237.75
2023-11-03T09:35:04.851Z,97234.22
2023-11-03T09:39:04.931Z,97239.64
2023-11-03T09:43:04.421Z,97245.08
2023-11-03T09:47:05.742Z,97245.04
2023-11-03T09:55:10.923Z,97244.05
2023-11-03T09:59:07.379Z,97244.11
2023-11-03T10:03:05.067Z,97252.76
2023-11-03T10:07:05.535Z,97260.78
2023-11-03T10:11:05.783Z,97263.78
2023-11-03T10:15:06.579Z,97274.15999999999
2023-11-03T10:19:04.837Z,97277.51
2023-11-03T10:23:04.874Z,97279.67
2023-11-03T10:27:05.636Z,97279.58
2023-11-03T10:31:04.935Z,97286.41
2023-11-03T10:35:05.659Z,97283.34
2023-11-03T10:39:05.733Z,97275.97
2023-11-03T10:43:07.974Z,97278.35
2023-11-03T10:47:06.285Z,97283.11
2023-11-03T10:51:10.884Z,97288.61
2023-11-03T10:55:10.301Z,97285.94
2023-11-03T10:59:06.424Z,97285.61
2023-11-03T11:03:12.488Z,97278.36
2023-11-03T11:07:09.958Z,97276.26000000001
2023-11-03T11:11:05.180Z,97266.0
2023-11-03T11:15:05.560Z,97270.01000000001
2023-11-03T11:19:10.562Z,97270.47
2023-11-03T11:23:05.845Z,97275.08
2023-11-03T11:27:12.164Z,97271.64
2023-11-03T11:31:26.134Z,97274.23999999999
2023-11-03T11:35:08.569Z,97269.22
2023-11-03T11:39:15.889Z,97263.51
2023-11-03T11:43:15.061Z,97256.1
2023-11-03T11:47:05.728Z,97257.04
2023-11-03T11:51:07.898Z,97262.01999999999
2023-11-03T11:55:05.909Z,97265.8
2023-11-03T11:59:06.458Z,97266.3
2023-11-03T12:03:06.948Z,97270.53
2023-11-03T12:07:05.434Z,97269.61
2023-11-03T12:11:06.773Z,97279.08
2023-11-03T12:15:05.532Z,97274.44
2023-11-03T12:19:05.500Z,97270.54000000001
2023-11-03T12:23:04.651Z,97270.72
2023-11-03T12:27:04.832Z,97274.34
2023-11-03T12:31:04.846Z,97272.77
2023-11-03T12:35:08.004Z,97268.14
2023-11-03T12:39:06.293Z,97269.98
2023-11-03T12:43:09.707Z,97262.8
2023-11-03T12:47:04.862Z,97257.74
2023-11-03T12:51:04.972Z,97261.01
2023-11-03T12:55:06.066Z,97255.59
2023-11-03T12:59:04.745Z,97255.40999999999
2023-11-03T13:03:05.421Z,97257.7
2023-11-03T13:07:05.395Z,97252.53
2023-11-03T13:12:20.364Z,97259.34
2023-11-03T13:15:06.074Z,97255.7
2023-11-03T13:23:07.292Z,97272.37
2023-11-03T13:31:05.028Z,97264.4
2023-11-03T13:39:26.802Z,97258.11
2023-11-03T13:43:06.001Z,97258.36
2023-11-03T13:47:05.339Z,97257.98
2023-11-03T13:51:05.253Z,97254.19
2023-11-03T13:55:05.823Z,97262.42
2023-11-03T13:59:04.956Z,97262.03
2023-11-03T14:03:05.508Z,97265.05
2023-11-03T14:07:04.919Z,97260.47
2023-11-03T14:11:15.187Z,97258.83
2023-11-03T14:13:49.183Z,97258.83
2023-11-03T14:15:07.161Z,97259.89
2023-11-03T14:20:09.240Z,97277.15
2023-11-03T14:23:04.925Z,97283.45000000001
2023-11-03T14:27:06.467Z,97294.51000000001
2023-11-03T14:35:10.505Z,97300.61
2023-11-03T14:39:04.986Z,97303.31
2023-11-03T14:43:05.180Z,97309.34
2023-11-03T14:47:05.517Z,97314.86
2023-11-03T14:51:05.264Z,97313.28
2023-11-03T14:55:06.263Z,97317.75
2023-11-03T14:59:05.100Z,97324.32
2023-11-03T15:03:07.506Z,97326.23
2023-11-03T15:07:06.745Z,97325.18
2023-11-03T15:11:05.116Z,97326.64
2023-11-03T15:15:06.048Z,97332.15
2023-11-03T15:19:06.686Z,97332.69
2023-11-03T15:23:05.378Z,97331.5
2023-11-03T15:27:05.144Z,97330.5
2023-11-03T15:31:07.223Z,97331.23000000001
2023-11-03T15:35:05.908Z,97334.05
2023-11-03T15:39:15.875Z,97332.76
2023-11-03T15:43:05.165Z,97336.31
2023-11-03T15:47:06.092Z,97328.47
2023-11-03T15:51:43.240Z,97331.42
2023-11-03T15:55:07.682Z,97332.17
2023-11-03T15:59:05.324Z,97333.89
2023-11-03T16:03:05.378Z,97331.17
2023-11-03T16:07:21.914Z,97330.84
2023-11-03T16:15:06.540Z,97334.59
2023-11-03T16:19:05.512Z,97337.64
2023-11-03T16:23:05.549Z,97343.52
2023-11-03T16:27:08.115Z,97347.56
2023-11-03T16:35:06.433Z,97353.01
2023-11-03T16:39:10.133Z,97360.74
2023-11-03T16:43:07.754Z,97377.61
2023-11-03T16:47:07.823Z,97372.09
2023-11-03T16:51:06.376Z,97369.62
2023-11-03T16:55:07.198Z,97371.33
2023-11-03T16:59:07.111Z,97365.44
2023-11-03T17:03:05.711Z,97372.91
2023-11-03T17:07:08.030Z,97380.28
2023-11-03T17:11:07.373Z,97377.95
2023-11-03T17:15:07.875Z,97376.33
2023-11-03T17:19:07.926Z,97376.89
2023-11-03T17:23:07.201Z,97382.48
2023-11-03T17:27:06.496Z,97379.11
2023-11-03T17:31:06.970Z,97378.92
2023-11-03T17:35:06.505Z,97381.16
2023-11-03T17:39:09.338Z,97381.5
2023-11-03T17:43:05.604Z,97381.48
2023-11-03T17:47:05.651Z,97385.24
2023-11-03T17:51:05.545Z,97384.31
2023-11-03T17:55:09.080Z,97391.42
2023-11-03T17:59:05.509Z,97385.36
2023-11-03T18:03:06.243Z,97382.28
2023-11-03T18:07:08.311Z,97378.19
2023-11-03T18:11:05.874Z,97377.81
2023-11-03T18:15:07.583Z,97379.71
2023-11-03T18:19:05.865Z,97383.56999999999
2023-11-03T18:23:05.567Z,97385.74
2023-11-03T18:27:05.747Z,97389.37
2023-11-03T18:31:05.712Z,97385.70999999999
2023-11-03T18:35:09.045Z,97391.95999999999
2023-11-03T18:39:05.609Z,97393.11
2023-11-03T18:43:06.200Z,97393.59
2023-11-03T18:47:05.813Z,97397.6
2023-11-03T18:51:25.580Z,97403.2
2023-11-03T18:56:04.916Z,97403.05
2023-11-03T19:00:21.990Z,97404.97
2023-11-03T19:04:41.313Z,97408.25
2023-11-03T19:07:32.704Z,97410.41
2023-11-03T19:11:06.200Z,97414.04
2023-11-03T19:15:08.633Z,97414.49
2023-11-03T19:19:06.078Z,97418.55
2023-11-03T19:23:06.105Z,97425.56
2023-11-03T19:27:05.960Z,97428.45
2023-11-03T19:31:06.356Z,97427.63
2023-11-03T19:35:06.377Z,97423.6
2023-11-03T19:39:06.597Z,97427.19
2023-11-03T19:43:06.212Z,97429.06
2023-11-03T19:47:06.285Z,97427.29000000001
2023-11-03T19:51:06.081Z,97426.14
2023-11-03T19:55:06.518Z,97433.46
2023-11-03T19:59:06.114Z,97428.88
2023-11-03T20:03:06.272Z,97431.61
2023-11-03T20:07:06.687Z,97428.02
2023-11-03T20:11:06.442Z,97435.27
2023-11-03T20:15:08.973Z,97424.15
2023-11-03T20:19:07.931Z,97429.29000000001
2023-11-03T20:23:06.835Z,97430.90999999999
2023-11-03T20:27:06.704Z,97436.8
2023-11-03T20:31:06.183Z,97435.44
2023-11-03T20:35:07.361Z,97431.12
2023-11-03T20:39:10.754Z,97435.61
2023-11-03T20:43:06.766Z,97429.9
2023-11-03T20:47:06.589Z,97429.5
2023-11-03T20:51:06.934Z,97423.53
2023-11-03T20:55:06.783Z,97422.86
2023-11-03T20:59:07.023Z,97423.43
2023-11-03T21:03:06.164Z,97423.47
2023-11-03T21:07:06.530Z,97428.45
2023-11-03T21:11:06.250Z,97421.72
2023-11-03T21:15:08.222Z,97424.47
2023-11-03T21:19:06.377Z,97428.23
2023-11-03T21:23:06.255Z,97424.06
2023-11-03T21:27:06.127Z,97415.75
2023-11-03T21:31:06.190Z,97409.53
2023-11-03T21:35:08.935Z,97406.47
2023-11-03T21:43:06.325Z,97410.55
2023-11-03T21:47:06.845Z,97411.22
2023-11-03T21:51:06.390Z,97412.97
2023-11-03T21:55:06.819Z,97422.77
2023-11-03T21:59:06.645Z,97423.97
2023-11-03T22:07:09.143Z,97440.41
2023-11-03T22:11:06.230Z,97441.09
2023-11-03T22:15:06.928Z,97440.42
2023-11-03T22:19:06.406Z,97448.51999999999
2023-11-03T22:23:06.354Z,97454.19
2023-11-03T22:27:08.174Z,97449.23999999999
2023-11-03T22:31:06.529Z,97456.98
2023-11-03T22:39:06.421Z,97456.28
2023-11-03T22:43:06.508Z,97449.58
2023-11-03T22:47:06.664Z,97440.16
2023-11-03T22:51:07.785Z,97431.09
2023-11-03T22:55:09.281Z,97425.66
2023-11-03T22:59:06.546Z,97422.86
2023-11-03T23:03:07.165Z,97423.47
2023-11-03T23:07:06.736Z,97420.19
2023-11-03T23:11:07.865Z,97421.86
2023-11-03T23:15:08.497Z,97419.61
2023-11-03T23:19:07.344Z,97419.65
2023-11-03T23:23:06.424Z,97420.67
2023-11-03T23:31:07.133Z,97402.59
2023-11-03T23:35:07.412Z,97393.40999999999
2023-11-03T23:39:07.799Z,97394.29000000001
2023-11-03T23:43:06.508Z,97391.88
2023-11-03T23:47:06.774Z,97386.35
2023-11-03T23:51:06.734Z,97379.13
2023-11-03T23:55:07.352Z,97394.65
2023-11-03T23:59:07.466Z,97389.06
